aviador You're here:

PACZ Decoded Metar

CAPE ROMANZOF in AK, USA
Report Time2017-09-26 02:55:00
UTC Time2017-09-26 03:32:53
Flight Rules ifr IFR
Wind020° at 23 Gusting to 26 kt
W.Decomp.*RWY 02: 22.4 kt HW 5.2 kt LCW
W.Rank020° ranks 4
Current wind is above 020° avg. (18.5)
Visibility9999 m
Phenomena:N/A
Clouds:Overcast 008 Hf
Expected CloudBase > 400 ft AGL from Temp-Dew spread
Ceiling800 ft
Temp06°C (ISA -8)
Dew Point05°C (93% RH)
AAT-3.4°C
QNH1011 hPa
Density Alt-302 ft
Elevation479 ft
Report Wrong Elevation
Raw Report
PACZ 260255Z AUTO 02023G26KT 10SM OVC008 06/05 A2986=

Extra information for PACZ:More info

Metar Taf Metar & Taf Last 4 Metars F.Rules Stats Wind Profile Meteogram Temp Stats Airport Information Weather charts Add Link Nearby VenuesMetar ALERT Operation Metar Decoded Social comments

AIRNAV info for PACZ